Time;durP1;ratioP1;P1;durP2;ratioP2;P2;SDS_P1;SDS_P2;PMS_P1;PMS_P2;Temp;Humidity;BMP_temperature;BMP_pressure;BME280_temperature;BME280_humidity;BME280_pressure;Samples;Min_cycle;Max_cycle;Signal;HPM_P1;HPM_P2
2024/03/18 00:00:34;;;;;;;10.90;8.38;;;12.60;96.70;;;;;;4921974;29;20109;-72
2024/03/18 00:03:04;;;;;;;13.85;8.73;;;12.60;96.70;;;;;;4916731;29;20050;-72
2024/03/18 00:05:32;;;;;;;9.82;7.70;;;12.60;96.70;;;;;;4932802;29;20432;-72
2024/03/18 00:08:00;;;;;;;11.23;7.45;;;12.60;96.70;;;;;;4900309;29;20058;-72
2024/03/18 00:10:28;;;;;;;10.25;7.40;;;12.60;96.70;;;;;;4917806;29;20054;-72
2024/03/18 00:12:57;;;;;;;9.30;7.68;;;12.70;96.70;;;;;;4934278;29;20060;-72
2024/03/18 00:15:26;;;;;;;11.43;7.75;;;12.60;96.70;;;;;;4917847;29;20118;-72
2024/03/18 00:17:53;;;;;;;9.32;6.85;;;12.60;96.70;;;;;;4947554;29;20579;-72
2024/03/18 00:20:23;;;;;;;8.20;6.68;;;12.70;96.70;;;;;;4948739;29;20054;-72
2024/03/18 00:22:51;;;;;;;8.27;6.32;;;12.70;96.70;;;;;;4923591;29;20134;-72
2024/03/18 00:25:20;;;;;;;10.68;6.88;;;12.70;96.70;;;;;;4919165;29;20047;-72
2024/03/18 00:27:47;;;;;;;9.07;6.82;;;12.70;96.70;;;;;;4933187;29;20059;-72
2024/03/18 00:30:15;;;;;;;8.00;6.00;;;12.70;96.70;;;;;;4932531;29;20644;-73
2024/03/18 00:32:43;;;;;;;7.80;5.45;;;12.60;96.70;;;;;;4933215;29;20412;-72
2024/03/18 00:35:13;;;;;;;7.63;5.28;;;12.60;96.70;;;;;;4917774;29;20109;-71
2024/03/18 00:37:42;;;;;;;7.63;5.30;;;12.60;96.70;;;;;;4933233;29;20940;-72
2024/03/18 00:40:10;;;;;;;8.07;6.03;;;12.70;96.70;;;;;;4917123;29;20424;-73
2024/03/18 00:42:37;;;;;;;8.10;5.65;;;12.60;96.70;;;;;;4948424;29;20489;-72
2024/03/18 00:45:06;;;;;;;8.07;5.28;;;12.60;96.70;;;;;;4917525;29;20054;-73
2024/03/18 00:47:33;;;;;;;6.45;4.78;;;12.70;96.70;;;;;;4918248;29;20485;-72
2024/03/18 00:50:01;;;;;;;8.32;4.95;;;12.70;96.70;;;;;;4916207;29;20070;-73
2024/03/18 00:52:29;;;;;;;5.25;4.50;;;12.60;96.70;;;;;;4916670;29;20047;-70
2024/03/18 00:54:59;;;;;;;6.32;4.20;;;12.60;96.70;;;;;;4912391;29;20055;-71
2024/03/18 00:57:28;;;;;;;7.43;4.63;;;12.60;96.70;;;;;;4923815;29;20138;-70
2024/03/18 00:59:55;;;;;;;7.50;4.72;;;12.70;96.70;;;;;;4905172;29;20094;-70
2024/03/18 01:02:22;;;;;;;5.07;4.40;;;12.70;96.70;;;;;;4915006;29;20691;-69
2024/03/18 01:04:50;;;;;;;7.53;4.82;;;12.70;96.70;;;;;;4916589;29;20098;-70
2024/03/18 01:07:16;;;;;;;7.15;4.68;;;12.70;96.70;;;;;;4932594;29;20043;-70
2024/03/18 01:09:46;;;;;;;7.38;5.07;;;12.60;96.70;;;;;;4926812;29;20047;-70
2024/03/18 01:12:15;;;;;;;6.35;4.80;;;12.50;96.70;;;;;;4916378;29;20054;-71
2024/03/18 01:14:43;;;;;;;9.85;4.97;;;12.40;96.70;;;;;;4932352;29;20058;-70
2024/03/18 01:17:10;;;;;;;9.40;4.82;;;12.50;96.70;;;;;;4932023;29;20070;-70
2024/03/18 01:19:40;;;;;;;6.20;4.57;;;12.50;96.70;;;;;;4915690;29;20449;-70
2024/03/18 01:22:07;;;;;;;7.47;4.55;;;12.50;96.70;;;;;;4932396;29;20169;-70
2024/03/18 01:24:37;;;;;;;6.57;4.45;;;12.50;96.70;;;;;;4916414;29;20047;-70
2024/03/18 01:27:05;;;;;;;6.78;4.43;;;12.50;96.70;;;;;;4930205;29;20524;-70
2024/03/18 01:29:34;;;;;;;4.97;4.25;;;12.50;96.70;;;;;;4900777;29;20058;-70
2024/03/18 01:32:02;;;;;;;7.60;4.38;;;12.40;96.70;;;;;;4929799;29;20047;-70
2024/03/18 01:34:30;;;;;;;7.47;4.25;;;12.50;96.70;;;;;;4929468;29;20117;-71
2024/03/18 01:36:59;;;;;;;6.57;3.97;;;12.40;96.70;;;;;;4901492;29;20125;-70
2024/03/18 01:39:27;;;;;;;5.10;4.38;;;12.50;96.70;;;;;;4932119;29;20141;-70
2024/03/18 01:41:54;;;;;;;8.63;5.20;;;12.40;96.70;;;;;;4913519;29;20074;-73
2024/03/18 01:44:22;;;;;;;7.10;5.30;;;12.40;96.70;;;;;;4911690;29;21132;-73
2024/03/18 01:46:52;;;;;;;9.80;5.68;;;12.50;96.70;;;;;;4915554;29;20520;-73
2024/03/18 01:49:19;;;;;;;9.55;6.15;;;12.50;96.70;;;;;;4915322;29;20515;-72
2024/03/18 01:51:47;;;;;;;13.98;6.35;;;12.50;96.70;;;;;;4915976;29;20063;-73
2024/03/18 01:54:16;;;;;;;8.52;6.38;;;12.50;96.70;;;;;;4915286;29;20114;-72
2024/03/18 01:56:44;;;;;;;7.47;6.07;;;12.60;96.70;;;;;;4899177;29;20135;-73
2024/03/18 01:59:11;;;;;;;8.18;6.63;;;12.60;96.70;;;;;;4930881;29;20055;-73
2024/03/18 02:01:38;;;;;;;11.30;6.72;;;12.60;96.70;;;;;;4911007;29;20625;-72
2024/03/18 02:04:11;;;;;;;11.95;6.70;;;12.60;96.70;;;;;;4915641;29;20141;-73
2024/03/18 02:06:45;;;;;;;9.45;7.07;;;12.60;96.70;;;;;;4931844;29;20051;-73
2024/03/18 02:09:17;;;;;;;8.90;7.25;;;12.60;96.70;;;;;;4931387;29;20059;-72
2024/03/18 02:11:46;;;;;;;9.38;6.90;;;12.60;96.70;;;;;;4931656;29;20055;-73
2024/03/18 02:14:13;;;;;;;12.13;7.03;;;12.50;96.70;;;;;;4947450;29;20047;-73
2024/03/18 02:16:41;;;;;;;9.95;6.90;;;12.60;96.70;;;;;;4897478;29;20055;-73
2024/03/18 02:19:10;;;;;;;12.85;8.25;;;12.50;96.70;;;;;;4915888;29;20043;-73
2024/03/18 02:21:37;;;;;;;11.00;7.32;;;12.50;96.70;;;;;;4914689;29;20071;-73
2024/03/18 02:24:08;;;;;;;8.48;6.47;;;12.60;96.70;;;;;;4921313;29;20047;-73
2024/03/18 02:26:37;;;;;;;10.13;7.15;;;12.60;96.70;;;;;;4915472;29;20532;-72
2024/03/18 02:29:04;;;;;;;10.98;7.60;;;12.60;96.70;;;;;;4940141;29;20504;-73
2024/03/18 02:31:31;;;;;;;7.72;6.30;;;12.60;96.70;;;;;;4927645;29;20077;-73
2024/03/18 02:33:58;;;;;;;11.88;7.32;;;12.60;96.70;;;;;;4929699;29;20047;-73
2024/03/18 02:36:27;;;;;;;9.80;6.60;;;12.60;96.70;;;;;;4922913;29;20114;-73
2024/03/18 02:38:56;;;;;;;8.93;7.40;;;12.60;96.70;;;;;;4931024;29;20406;-73
2024/03/18 02:41:27;;;;;;;10.38;7.55;;;12.60;96.70;;;;;;4928481;29;20048;-73
2024/03/18 02:43:55;;;;;;;8.52;6.80;;;12.60;96.70;;;;;;4924559;29;20071;-73
2024/03/18 02:46:22;;;;;;;10.43;7.60;;;12.60;96.70;;;;;;4907248;29;20055;-70
2024/03/18 02:48:50;;;;;;;10.95;7.63;;;12.60;96.70;;;;;;4907308;29;20047;-70
2024/03/18 02:51:17;;;;;;;9.43;6.68;;;12.60;96.70;;;;;;4929638;29;20058;-70
2024/03/18 02:53:44;;;;;;;12.00;7.38;;;12.60;96.70;;;;;;4914975;29;20083;-70
2024/03/18 02:56:13;;;;;;;10.98;6.90;;;12.60;96.70;;;;;;4910270;29;20134;-71
2024/03/18 02:58:41;;;;;;;9.23;6.72;;;12.60;96.70;;;;;;4914565;29;20121;-71
2024/03/18 03:01:10;;;;;;;8.07;6.82;;;12.60;96.70;;;;;;4930269;29;20141;-71
2024/03/18 03:03:38;;;;;;;9.52;7.45;;;12.60;96.70;;;;;;4905904;29;20056;-71
2024/03/18 03:06:07;;;;;;;9.95;7.43;;;12.60;96.70;;;;;;4913856;29;20071;-73
2024/03/18 03:08:34;;;;;;;10.18;7.45;;;12.60;96.70;;;;;;4928762;29;20497;-73
2024/03/18 03:11:04;;;;;;;14.93;7.93;;;12.60;96.70;;;;;;4927583;29;20035;-72
2024/03/18 03:13:34;;;;;;;10.05;7.30;;;12.60;96.70;;;;;;4947737;28;20162;-73
2024/03/18 03:16:03;;;;;;;8.23;6.90;;;12.60;96.70;;;;;;4917517;29;20051;-73
2024/03/18 03:18:31;;;;;;;10.50;7.22;;;12.60;96.70;;;;;;4918896;29;20055;-73
2024/03/18 03:21:00;;;;;;;10.50;7.65;;;12.60;96.70;;;;;;4934292;29;20047;-73
2024/03/18 03:23:28;;;;;;;9.30;7.85;;;12.60;96.70;;;;;;4934800;29;20054;-73
2024/03/18 03:25:55;;;;;;;9.73;7.65;;;12.60;96.70;;;;;;4918482;29;20046;-73
2024/03/18 03:28:23;;;;;;;10.75;7.30;;;12.60;96.70;;;;;;4934597;29;20065;-73
2024/03/18 03:31:02;;;;;;;9.65;6.75;;;12.60;96.70;;;;;;4927234;29;20197;-72
2024/03/18 03:33:30;;;;;;;9.55;6.75;;;12.60;96.70;;;;;;4934033;29;20436;-73
2024/03/18 03:36:01;;;;;;;9.55;7.13;;;12.60;96.70;;;;;;4934944;29;20047;-72
2024/03/18 03:38:28;;;;;;;11.00;7.70;;;12.60;96.70;;;;;;4902824;29;20051;-73
2024/03/18 03:40:55;;;;;;;9.00;7.13;;;12.60;96.70;;;;;;4915085;29;20056;-73
2024/03/18 03:43:23;;;;;;;9.82;7.43;;;12.60;96.70;;;;;;4932907;29;21373;-73
2024/03/18 03:45:57;;;;;;;11.02;7.53;;;12.50;96.70;;;;;;4933534;29;20065;-72
2024/03/18 03:48:27;;;;;;;9.23;7.25;;;12.60;96.70;;;;;;4928377;29;20075;-73
2024/03/18 03:50:55;;;;;;;10.50;7.55;;;12.50;96.70;;;;;;4916707;29;20047;-71
2024/03/18 03:53:27;;;;;;;8.57;6.80;;;12.50;96.70;;;;;;4933098;29;20177;-72
2024/03/18 03:56:00;;;;;;;9.40;7.70;;;12.50;96.70;;;;;;4918334;29;20844;-72
2024/03/18 03:58:28;;;;;;;9.60;7.07;;;12.50;96.70;;;;;;4933703;29;20134;-72
2024/03/18 04:00:56;;;;;;;9.73;7.38;;;12.50;96.70;;;;;;4911362;29;20078;-72
2024/03/18 04:03:26;;;;;;;9.30;7.95;;;12.60;96.70;;;;;;4917844;29;20083;-72
2024/03/18 04:05:54;;;;;;;8.75;7.22;;;12.60;96.70;;;;;;4893376;29;20055;-72
2024/03/18 04:08:21;;;;;;;13.05;8.38;;;12.60;96.70;;;;;;4933414;29;20109;-72
2024/03/18 04:10:49;;;;;;;12.25;8.35;;;12.60;96.70;;;;;;4934064;29;20051;-71
2024/03/18 04:13:17;;;;;;;11.60;8.57;;;12.60;96.70;;;;;;4910245;29;20054;-72
2024/03/18 04:15:45;;;;;;;10.27;8.98;;;12.50;96.70;;;;;;4930669;29;20374;-71
2024/03/18 04:18:12;;;;;;;12.73;9.23;;;12.50;96.70;;;;;;4932662;29;20069;-72
2024/03/18 04:20:41;;;;;;;12.98;9.40;;;12.50;96.70;;;;;;4932300;29;20055;-72
2024/03/18 04:23:08;;;;;;;11.25;9.75;;;12.40;96.70;;;;;;4933162;28;20071;-73
2024/03/18 04:25:35;;;;;;;12.02;10.02;;;12.40;96.70;;;;;;4928977;29;20051;-72
2024/03/18 04:28:07;;;;;;;11.68;10.02;;;12.40;96.70;;;;;;4904818;29;20150;-71
2024/03/18 04:30:36;;;;;;;11.00;9.48;;;12.40;96.70;;;;;;4933286;29;20408;-73
2024/03/18 04:33:04;;;;;;;11.20;8.88;;;12.40;96.70;;;;;;4916767;29;20078;-72
2024/03/18 04:35:32;;;;;;;12.63;9.80;;;12.40;96.70;;;;;;4932823;29;20059;-72
2024/03/18 04:38:01;;;;;;;10.48;8.60;;;12.40;96.70;;;;;;4917016;29;20051;-73
2024/03/18 04:40:30;;;;;;;11.57;8.85;;;12.50;96.70;;;;;;4901086;29;20055;-73
2024/03/18 04:42:57;;;;;;;11.32;9.05;;;12.50;96.70;;;;;;4927809;29;20493;-73
2024/03/18 04:45:26;;;;;;;11.65;9.13;;;12.50;96.70;;;;;;4924066;29;20071;-73
2024/03/18 04:47:54;;;;;;;11.18;8.93;;;12.50;96.70;;;;;;4916567;29;20051;-72
2024/03/18 04:50:24;;;;;;;9.60;8.32;;;12.60;96.70;;;;;;4932226;29;20047;-73
2024/03/18 04:52:55;;;;;;;10.82;9.70;;;12.60;96.70;;;;;;4916018;29;20040;-73
2024/03/18 04:55:25;;;;;;;11.13;9.02;;;12.60;96.70;;;;;;4930782;29;20197;-73
2024/03/18 04:57:55;;;;;;;10.13;8.35;;;12.60;96.70;;;;;;4931208;29;20062;-73
2024/03/18 05:00:26;;;;;;;10.75;8.70;;;12.60;96.70;;;;;;4915429;29;20078;-73
2024/03/18 05:02:54;;;;;;;11.30;8.60;;;12.70;96.70;;;;;;4915109;29;20673;-73
2024/03/18 05:05:21;;;;;;;10.50;8.18;;;12.70;96.70;;;;;;4915800;29;20144;-72
2024/03/18 05:07:52;;;;;;;10.40;8.35;;;12.70;96.70;;;;;;4928042;29;20075;-73
2024/03/18 05:10:26;;;;;;;10.32;8.32;;;12.70;96.70;;;;;;4917224;29;20059;-72
2024/03/18 05:13:01;;;;;;;11.20;8.35;;;12.70;96.70;;;;;;4916309;29;20062;-72
2024/03/18 05:15:29;;;;;;;9.50;8.50;;;12.70;96.70;;;;;;4932036;29;20487;-73
2024/03/18 05:18:00;;;;;;;9.80;7.95;;;12.70;96.70;;;;;;4916817;29;20055;-72
2024/03/18 05:20:27;;;;;;;10.02;7.95;;;12.70;96.70;;;;;;4916626;29;20062;-72
2024/03/18 05:22:57;;;;;;;10.20;7.68;;;12.70;96.70;;;;;;4931996;29;20143;-72
2024/03/18 05:25:26;;;;;;;9.07;7.70;;;12.70;96.70;;;;;;4932010;29;20067;-72
2024/03/18 05:27:55;;;;;;;12.30;7.75;;;12.70;96.70;;;;;;4931006;29;20202;-72
2024/03/18 05:30:23;;;;;;;8.80;7.13;;;12.70;96.70;;;;;;4930230;29;20479;-73
2024/03/18 05:32:51;;;;;;;8.02;6.93;;;12.70;96.70;;;;;;4944466;29;20043;-72
2024/03/18 05:35:21;;;;;;;7.47;6.63;;;12.70;96.70;;;;;;4946310;28;20519;-72
2024/03/18 05:37:50;;;;;;;10.43;7.93;;;12.80;96.70;;;;;;4914870;29;20162;-72
2024/03/18 05:40:17;;;;;;;8.63;7.25;;;12.80;96.70;;;;;;4947645;29;20089;-72
2024/03/18 05:42:48;;;;;;;9.13;7.30;;;12.70;96.70;;;;;;4897534;29;20541;-73
2024/03/18 05:45:20;;;;;;;10.77;7.65;;;12.70;96.70;;;;;;4913642;29;20048;-72
2024/03/18 05:47:48;;;;;;;9.55;7.22;;;12.80;96.70;;;;;;4946320;29;20051;-72
2024/03/18 05:50:17;;;;;;;9.25;7.20;;;12.80;96.70;;;;;;4916946;29;20572;-72
2024/03/18 05:52:47;;;;;;;8.18;7.25;;;12.80;96.70;;;;;;4916583;29;20047;-72
2024/03/18 05:55:17;;;;;;;10.52;7.45;;;12.70;96.70;;;;;;4932282;29;20051;-73
2024/03/18 05:57:44;;;;;;;10.55;7.43;;;12.80;96.70;;;;;;4927818;29;20200;-72
2024/03/18 06:00:12;;;;;;;9.07;7.38;;;12.80;96.70;;;;;;4937991;29;20173;-72
2024/03/18 06:02:40;;;;;;;12.05;7.57;;;12.80;96.70;;;;;;4930406;29;20051;-72
2024/03/18 06:05:08;;;;;;;10.40;7.03;;;12.80;96.70;;;;;;4916148;29;20754;-72
2024/03/18 06:07:35;;;;;;;11.32;8.05;;;12.80;96.70;;;;;;4899508;29;20055;-72
2024/03/18 06:10:03;;;;;;;11.35;7.53;;;12.80;96.70;;;;;;4901100;29;20135;-72
2024/03/18 06:12:32;;;;;;;9.60;7.32;;;12.80;96.70;;;;;;4914919;29;20051;-72
2024/03/18 06:15:00;;;;;;;11.18;7.50;;;12.80;96.70;;;;;;4916720;29;20113;-72
2024/03/18 06:17:29;;;;;;;11.40;7.07;;;12.80;96.70;;;;;;4944803;29;20660;-73
2024/03/18 06:19:58;;;;;;;10.15;7.32;;;12.80;96.70;;;;;;4932309;29;20075;-73
2024/03/18 06:22:36;;;;;;;9.80;7.45;;;12.80;96.70;;;;;;4916026;29;20161;-72
2024/03/18 06:27:54;;;;;;;12.80;7.88;;;12.80;96.70;;;;;;4911427;29;20063;-72
2024/03/18 06:30:21;;;;;;;9.73;7.78;;;12.90;96.70;;;;;;4921014;29;20142;-73
2024/03/18 06:32:51;;;;;;;11.18;7.80;;;12.90;96.70;;;;;;4912005;29;20051;-71
2024/03/18 06:35:21;;;;;;;8.43;7.40;;;12.90;96.70;;;;;;4930849;29;20441;-73
2024/03/18 06:37:50;;;;;;;8.82;7.60;;;12.90;96.70;;;;;;4915595;29;20047;-72
2024/03/18 06:40:17;;;;;;;11.90;8.25;;;12.90;96.70;;;;;;4914611;29;20082;-72
2024/03/18 06:42:48;;;;;;;10.90;8.38;;;13.00;96.70;;;;;;4915144;29;20039;-72
2024/03/18 06:45:18;;;;;;;11.95;8.63;;;13.10;96.70;;;;;;4916439;29;20649;-72
2024/03/18 06:47:48;;;;;;;12.57;8.85;;;13.10;96.70;;;;;;4928265;29;20050;-72
2024/03/18 06:50:15;;;;;;;10.32;8.25;;;13.10;96.70;;;;;;4925367;29;20058;-73
2024/03/18 06:52:43;;;;;;;10.35;7.47;;;13.20;96.70;;;;;;4930480;29;20047;-72
2024/03/18 06:55:14;;;;;;;12.18;8.65;;;13.20;96.70;;;;;;4931102;29;20050;-72
2024/03/18 06:57:41;;;;;;;11.18;8.32;;;13.20;96.70;;;;;;4930833;29;20062;-73
2024/03/18 07:00:10;;;;;;;11.85;9.38;;;13.30;96.70;;;;;;4911392;29;20464;-73
2024/03/18 07:02:37;;;;;;;12.25;8.65;;;13.20;96.70;;;;;;4931633;29;20057;-73
2024/03/18 07:05:12;;;;;;;11.57;8.85;;;13.30;96.70;;;;;;4946641;28;20043;-73
2024/03/18 07:07:41;;;;;;;11.35;9.15;;;13.30;96.70;;;;;;4931118;29;20528;-73
2024/03/18 07:10:12;;;;;;;9.75;8.52;;;13.30;96.70;;;;;;4931116;29;20055;-73
2024/03/18 07:12:39;;;;;;;11.88;8.55;;;13.30;96.70;;;;;;4930530;29;20046;-73
2024/03/18 07:15:08;;;;;;;10.20;8.35;;;13.30;96.70;;;;;;4914449;29;20055;-73
2024/03/18 07:17:36;;;;;;;11.75;8.32;;;13.30;96.70;;;;;;4930038;29;20382;-72
2024/03/18 07:20:06;;;;;;;12.50;8.77;;;13.30;96.70;;;;;;4930611;29;20047;-72
2024/03/18 07:22:33;;;;;;;12.60;9.13;;;13.30;96.70;;;;;;4929801;29;20043;-73
2024/03/18 07:25:01;;;;;;;9.68;8.13;;;13.30;96.70;;;;;;4931008;29;20065;-72
2024/03/18 07:27:31;;;;;;;10.15;8.70;;;13.30;96.70;;;;;;4930807;29;20468;-72
2024/03/18 07:30:00;;;;;;;12.43;8.40;;;13.30;96.70;;;;;;4930149;29;20062;-73
2024/03/18 07:32:27;;;;;;;11.63;8.43;;;13.30;96.70;;;;;;4930881;29;20051;-72
2024/03/18 07:34:57;;;;;;;13.77;8.02;;;13.30;96.70;;;;;;4912593;29;20043;-73
2024/03/18 07:37:24;;;;;;;10.00;9.00;;;13.30;96.70;;;;;;4943134;29;20520;-72
2024/03/18 07:39:51;;;;;;;11.07;7.63;;;13.30;96.70;;;;;;4929386;29;20516;-73
2024/03/18 07:42:19;;;;;;;10.13;8.07;;;13.30;96.70;;;;;;4898210;29;20047;-73
2024/03/18 07:44:50;;;;;;;12.48;7.93;;;13.30;96.70;;;;;;4945410;29;20538;-72
2024/03/18 07:47:18;;;;;;;11.77;8.45;;;13.30;96.70;;;;;;4908577;29;20051;-72
2024/03/18 07:49:47;;;;;;;11.82;7.68;;;13.30;96.70;;;;;;4928329;29;20500;-73
2024/03/18 07:52:18;;;;;;;10.30;7.05;;;13.30;96.70;;;;;;4928032;29;20129;-72
2024/03/18 07:54:48;;;;;;;9.48;7.25;;;13.30;96.70;;;;;;4929630;29;20058;-70
2024/03/18 07:57:17;;;;;;;9.93;7.15;;;13.30;96.70;;;;;;4910432;29;20052;-70
2024/03/18 07:59:44;;;;;;;11.35;7.35;;;13.30;96.70;;;;;;4923067;29;20071;-70
2024/03/18 08:02:17;;;;;;;9.50;7.13;;;13.30;96.70;;;;;;4909847;29;20047;-70
2024/03/18 08:04:45;;;;;;;9.48;7.10;;;13.40;96.70;;;;;;4933283;29;20116;-71
2024/03/18 08:07:14;;;;;;;10.40;6.85;;;13.30;96.70;;;;;;4921705;29;20047;-70
2024/03/18 08:09:43;;;;;;;8.63;7.40;;;13.30;96.70;;;;;;4931822;29;20043;-70
2024/03/18 08:12:12;;;;;;;9.52;7.20;;;13.30;96.70;;;;;;4932934;29;20046;-70
2024/03/18 08:14:42;;;;;;;10.68;7.28;;;13.40;96.70;;;;;;4921318;29;20051;-70
2024/03/18 08:17:10;;;;;;;10.02;8.18;;;13.40;96.70;;;;;;4917574;29;20058;-71
2024/03/18 08:19:39;;;;;;;11.60;7.80;;;13.40;96.70;;;;;;4933397;29;20500;-70
2024/03/18 08:22:06;;;;;;;13.75;9.25;;;13.50;96.70;;;;;;4917678;29;20062;-70
2024/03/18 08:24:35;;;;;;;13.63;9.40;;;13.50;96.70;;;;;;4933587;29;20110;-70
2024/03/18 08:27:05;;;;;;;11.77;8.85;;;13.50;96.70;;;;;;4937424;29;20169;-71
2024/03/18 08:29:32;;;;;;;15.60;9.02;;;13.60;96.70;;;;;;4917806;29;20051;-70
2024/03/18 08:32:01;;;;;;;11.68;7.95;;;13.70;96.70;;;;;;4927869;29;20067;-70
2024/03/18 08:34:28;;;;;;;14.93;9.43;;;13.70;96.70;;;;;;4916656;29;20096;-70
2024/03/18 08:36:59;;;;;;;12.75;9.35;;;13.80;96.70;;;;;;4917592;29;20051;-70
2024/03/18 08:39:27;;;;;;;15.63;9.82;;;13.80;96.70;;;;;;4933175;29;20107;-70
2024/03/18 08:41:56;;;;;;;14.65;10.23;;;13.90;96.70;;;;;;4918026;29;20079;-71
2024/03/18 08:44:24;;;;;;;17.10;10.02;;;13.90;96.70;;;;;;4917146;29;20055;-70
2024/03/18 08:46:53;;;;;;;18.45;10.60;;;14.00;96.70;;;;;;4916491;29;20051;-70
2024/03/18 08:49:22;;;;;;;18.13;11.23;;;14.00;96.70;;;;;;4911584;29;20057;-70
2024/03/18 08:51:51;;;;;;;12.00;8.80;;;14.00;96.70;;;;;;4933202;29;20142;-70
2024/03/18 08:54:20;;;;;;;12.00;9.23;;;13.90;96.70;;;;;;4917163;29;20055;-70
2024/03/18 08:56:48;;;;;;;13.80;8.77;;;13.90;96.70;;;;;;4933567;29;20054;-70
2024/03/18 08:59:16;;;;;;;12.02;8.85;;;13.90;96.70;;;;;;4917212;29;20047;-70
2024/03/18 09:01:46;;;;;;;10.48;8.60;;;13.90;96.70;;;;;;4933523;29;20039;-69
2024/03/18 09:04:16;;;;;;;13.60;8.52;;;13.90;96.70;;;;;;4933125;29;20155;-70
2024/03/18 09:06:45;;;;;;;13.30;8.77;;;14.00;96.70;;;;;;4927188;29;20047;-70
2024/03/18 09:09:14;;;;;;;22.80;10.80;;;14.00;96.70;;;;;;4917000;29;20057;-70
2024/03/18 09:11:44;;;;;;;20.83;9.77;;;14.00;96.70;;;;;;4932461;29;20511;-70
2024/03/18 09:14:13;;;;;;;12.07;7.93;;;14.10;96.70;;;;;;4916886;29;20516;-70
2024/03/18 09:16:40;;;;;;;10.85;8.05;;;14.10;96.70;;;;;;4921374;29;20043;-70
2024/03/18 09:19:08;;;;;;;10.13;7.93;;;14.10;96.70;;;;;;4916189;29;20055;-70
2024/03/18 09:21:35;;;;;;;11.75;8.05;;;14.10;96.70;;;;;;4930373;29;20563;-71
2024/03/18 09:24:05;;;;;;;12.02;8.30;;;14.20;96.70;;;;;;4946048;29;20054;-70
2024/03/18 09:26:35;;;;;;;11.00;7.93;;;14.20;96.70;;;;;;4932378;29;20139;-70
2024/03/18 09:29:05;;;;;;;12.18;7.28;;;14.20;96.70;;;;;;4932461;29;20120;-70
2024/03/18 09:31:32;;;;;;;8.07;6.72;;;14.20;96.70;;;;;;4932906;29;20051;-70
2024/03/18 09:34:02;;;;;;;8.88;6.65;;;14.20;96.70;;;;;;4931965;29;20528;-70
2024/03/18 09:36:30;;;;;;;10.20;6.72;;;14.20;96.70;;;;;;4931251;29;20051;-70
2024/03/18 09:38:58;;;;;;;9.05;6.05;;;14.30;96.70;;;;;;4916253;29;20086;-70
2024/03/18 09:41:29;;;;;;;8.27;6.13;;;14.40;96.70;;;;;;4914645;29;20086;-70
2024/03/18 09:43:57;;;;;;;9.15;5.85;;;14.50;96.70;;;;;;4916289;29;20078;-69
2024/03/18 09:46:26;;;;;;;8.32;5.88;;;14.60;96.70;;;;;;4916593;29;20697;-69
2024/03/18 09:48:54;;;;;;;12.45;6.60;;;14.70;96.70;;;;;;4924955;29;20043;-70
2024/03/18 09:51:24;;;;;;;11.60;6.32;;;14.80;96.70;;;;;;4916590;29;20058;-71
2024/03/18 09:53:51;;;;;;;9.13;5.93;;;14.90;96.70;;;;;;4931018;29;20118;-70
2024/03/18 09:56:19;;;;;;;13.57;6.97;;;14.90;96.70;;;;;;4915726;29;20055;-70
2024/03/18 09:58:47;;;;;;;8.68;5.45;;;15.00;96.70;;;;;;4947165;29;20460;-70
2024/03/18 10:01:14;;;;;;;7.85;6.30;;;15.00;96.70;;;;;;4931356;29;20429;-70
2024/03/18 10:03:44;;;;;;;7.47;5.85;;;14.90;96.70;;;;;;4916961;29;20054;-70
2024/03/18 10:06:13;;;;;;;11.95;6.05;;;14.90;96.70;;;;;;4932296;29;20401;-70
2024/03/18 10:08:42;;;;;;;10.50;6.53;;;14.90;96.70;;;;;;4947290;29;20051;-69
2024/03/18 10:11:15;;;;;;;9.38;6.30;;;14.90;96.70;;;;;;4931574;29;20105;-70
2024/03/18 10:13:43;;;;;;;14.45;7.40;;;14.90;96.70;;;;;;4931710;29;20597;-70
2024/03/18 10:16:12;;;;;;;10.07;7.00;;;14.90;96.70;;;;;;4931651;29;20050;-70
2024/03/18 10:18:41;;;;;;;10.52;7.68;;;14.90;96.70;;;;;;4929557;29;20142;-70
2024/03/18 10:21:10;;;;;;;12.80;7.70;;;14.90;96.70;;;;;;4922342;28;20063;-70
2024/03/18 10:23:46;;;;;;;13.60;7.53;;;14.80;96.70;;;;;;4915466;29;20058;-70
2024/03/18 10:26:19;;;;;;;13.30;7.35;;;14.70;96.70;;;;;;4928719;29;20086;-70
2024/03/18 10:28:47;;;;;;;15.15;8.52;;;14.70;96.70;;;;;;4915729;29;20063;-70
2024/03/18 10:31:20;;;;;;;12.73;7.78;;;14.80;96.70;;;;;;4919557;29;20054;-70
2024/03/18 10:33:48;;;;;;;9.38;7.70;;;14.80;96.70;;;;;;4915733;29;20178;-71
2024/03/18 10:36:26;;;;;;;15.52;8.27;;;14.80;96.70;;;;;;4931408;29;20058;-70
2024/03/18 10:39:15;;;;;;;10.35;7.68;;;14.90;96.70;;;;;;4931580;29;20055;-70
2024/03/18 10:41:44;;;;;;;10.00;6.95;;;14.90;96.70;;;;;;4931308;29;20114;-70
2024/03/18 10:44:17;;;;;;;13.07;7.07;;;14.90;96.70;;;;;;4915094;29;20078;-70
2024/03/18 10:46:45;;;;;;;12.20;6.32;;;14.90;96.70;;;;;;4924062;29;20051;-70
2024/03/18 10:49:21;;;;;;;9.90;6.10;;;14.90;96.70;;;;;;4911649;29;20062;-70
2024/03/18 10:51:50;;;;;;;11.93;6.90;;;15.00;96.70;;;;;;4913048;29;20051;-70
2024/03/18 10:54:21;;;;;;;12.77;7.22;;;14.90;96.70;;;;;;4914539;29;20054;-71
2024/03/18 10:56:48;;;;;;;11.85;6.57;;;14.90;96.70;;;;;;4931194;29;20050;-70
2024/03/18 10:59:20;;;;;;;12.82;6.95;;;14.90;96.70;;;;;;4930826;29;20500;-71
2024/03/18 11:01:48;;;;;;;11.80;6.82;;;14.90;96.70;;;;;;4898532;29;20140;-70
2024/03/18 11:04:18;;;;;;;9.85;6.85;;;14.80;96.70;;;;;;4929887;29;20047;-71
2024/03/18 11:06:49;;;;;;;13.48;6.50;;;14.80;96.70;;;;;;4931345;29;20066;-70
2024/03/18 11:09:19;;;;;;;13.68;7.68;;;14.80;96.70;;;;;;4931427;29;20054;-71
2024/03/18 11:11:46;;;;;;;12.95;7.65;;;14.90;96.70;;;;;;4919188;29;20055;-70
2024/03/18 11:14:24;;;;;;;10.75;7.45;;;14.90;96.70;;;;;;4930834;29;20043;-70
2024/03/18 11:16:52;;;;;;;12.50;7.70;;;14.90;96.70;;;;;;4912295;29;20487;-70
2024/03/18 11:19:24;;;;;;;16.23;8.27;;;14.80;96.70;;;;;;4930366;29;20050;-70
2024/03/18 11:22:02;;;;;;;12.70;7.38;;;14.80;96.70;;;;;;4928057;29;20076;-70
2024/03/18 11:24:32;;;;;;;10.05;7.10;;;14.80;96.70;;;;;;4945803;29;20059;-70
2024/03/18 11:27:01;;;;;;;15.05;8.45;;;14.80;96.70;;;;;;4907905;29;20425;-70
2024/03/18 11:29:34;;;;;;;12.85;7.80;;;14.80;96.70;;;;;;4914991;29;20497;-71
2024/03/18 11:32:02;;;;;;;11.10;7.35;;;14.80;96.70;;;;;;4914909;29;20070;-71
2024/03/18 11:34:35;;;;;;;10.68;6.72;;;14.70;96.70;;;;;;4918165;29;20051;-69
2024/03/18 11:37:08;;;;;;;11.32;7.10;;;14.70;96.70;;;;;;4934612;29;20098;-70
2024/03/18 11:39:40;;;;;;;13.43;7.70;;;14.70;96.70;;;;;;4919304;29;20059;-70
2024/03/18 11:42:07;;;;;;;9.75;7.20;;;14.80;96.70;;;;;;4918246;29;20086;-70
2024/03/18 11:44:35;;;;;;;13.27;7.72;;;14.80;96.70;;;;;;4922298;29;20077;-70
2024/03/18 11:47:07;;;;;;;10.02;7.18;;;14.80;96.70;;;;;;4910991;29;20047;-70
2024/03/18 11:49:38;;;;;;;13.55;7.95;;;14.80;96.70;;;;;;4934084;29;20700;-70
2024/03/18 11:52:14;;;;;;;13.18;6.75;;;14.80;96.70;;;;;;4935558;29;20051;-70
2024/03/18 11:54:43;;;;;;;10.20;6.35;;;14.70;96.70;;;;;;4918780;29;20051;-70
2024/03/18 11:57:12;;;;;;;10.50;6.88;;;14.70;96.70;;;;;;4918354;29;20047;-70
2024/03/18 11:59:41;;;;;;;12.63;7.25;;;14.70;96.70;;;;;;4901862;29;20047;-70
2024/03/18 12:02:08;;;;;;;11.63;7.22;;;14.70;96.70;;;;;;4925609;29;20537;-70
2024/03/18 12:04:36;;;;;;;12.75;7.15;;;14.70;96.70;;;;;;4934095;29;20863;-71
2024/03/18 12:07:06;;;;;;;12.23;7.72;;;14.70;96.70;;;;;;4934515;29;20079;-71
2024/03/18 12:09:36;;;;;;;13.43;7.13;;;14.60;96.70;;;;;;4935124;29;20488;-70
2024/03/18 12:12:04;;;;;;;11.05;6.85;;;14.50;96.70;;;;;;4901599;29;20050;-69
2024/03/18 12:14:32;;;;;;;11.55;7.15;;;14.50;96.70;;;;;;4917395;29;20059;-71
2024/03/18 12:17:01;;;;;;;10.25;6.95;;;14.50;96.70;;;;;;4917451;29;21144;-70
2024/03/18 12:19:30;;;;;;;11.20;7.15;;;14.40;96.70;;;;;;4934070;29;20085;-70
2024/03/18 12:21:57;;;;;;;9.70;6.78;;;14.40;96.70;;;;;;4921081;29;20047;-70
2024/03/18 12:29:58;;;;;;;11.05;7.05;;;14.40;96.70;;;;;;4917690;29;20055;-71
2024/03/18 12:32:27;;;;;;;10.10;6.35;;;14.40;96.70;;;;;;4933077;29;20508;-70
2024/03/18 12:34:54;;;;;;;8.63;6.43;;;14.50;96.70;;;;;;4933155;29;20563;-70
2024/03/18 12:37:21;;;;;;;10.05;6.00;;;14.50;96.70;;;;;;4917754;29;20051;-70
2024/03/18 12:39:49;;;;;;;8.60;6.03;;;14.40;96.70;;;;;;4914106;29;20048;-70
2024/03/18 12:42:18;;;;;;;8.80;5.22;;;14.40;96.70;;;;;;4929257;29;20055;-70
2024/03/18 12:44:45;;;;;;;7.63;5.53;;;14.40;96.70;;;;;;4907613;29;20063;-71
2024/03/18 12:47:12;;;;;;;10.90;6.13;;;14.40;96.70;;;;;;4921641;29;20078;-69
2024/03/18 12:49:39;;;;;;;8.02;5.95;;;14.40;96.70;;;;;;4932588;29;20043;-71
2024/03/18 12:52:10;;;;;;;7.28;5.18;;;14.40;96.70;;;;;;4932716;29;20062;-70
2024/03/18 12:54:38;;;;;;;8.18;5.03;;;14.40;96.70;;;;;;4901956;29;20050;-70
2024/03/18 12:57:05;;;;;;;8.20;5.50;;;14.50;96.70;;;;;;4925784;29;20101;-70